Ogunquit, ME

9:14 AM EDT on May 26, 2017 (GMT -0400)
Footbridge Beach | | Change Station

Elev 10 ft 43.26 °N, 70.59 °W | Updated 36 seconds ago

Rain
Rain
51.0 °F
Feels Like 51.0 °F
N
4.0
Wind Variable Wind from NE

Today
High -- | Low -- °F
--% Chance of Precip.
Yesterday
High -- | Low -- °F
Precip. -- in
Pressure 29.55 in
Visibility 2.5 miles
Clouds Overcast 700 ft
Dew Point 50 °F
Humidity 98%
Rainfall 1.62 in
Snow Depth Not available.
5:08 AM 8:10 PM
New Moon, 1% visible
METAR KSFM 261256Z AUTO 03011KT 2 1/2SM -RA BR OVC007 09/09 A2952 RMK AO2 VIS 2V3 RAB11 SLP007 P0000 T00940089
Pressure 29.55 in
Visibility 2.5 miles
Clouds Overcast 700 ft
Dew Point 50 °F
Humidity 98%
Rainfall 1.62 in
Snow Depth Not available.
5:08 AM 8:10 PM
New Moon, 1% visible
METAR KSFM 261256Z AUTO 03011KT 2 1/2SM -RA BR OVC007 09/09 A2952 RMK AO2 VIS 2V3 RAB11 SLP007 P0000 T00940089

Get Severe Weather Alerts

Thanks for signing up!

Be on the lookout for a verification email in your inbox.

You'll start receiving the daily forecast at 6 AM.

×

10-Day Weather Forecast

Almanac

Astronomy

May. 26, 2017 Rise Set
Actual Time
Civil Twilight
Nautical Twilight
Astronomical Twilight
Moon
Length of Visible Light
Length of Day
Tomorrow will be .
, % of the Moon is Illuminated

Today's Extremes

State Highs State Lows

Community

WunderPhotos

Category 6

Welcome to Category 6. This is the collective home for Weather Underground's featured writeups by Dr. Jeff Masters (right), Bob Henson (left), Chris Burt, and other regular contributors.

Nearby

Air Quality

  Air Quality AQ Index Pollutant
Not available.

Snow Depth

Station Depth Elevation

Earthquake Activity

City Distance Mag. Time & Date
Minimum magnitude displayed is 2.5.

Coastal Water Temperatures

Place Temperature

Stations

Nearby Weather Stations

Station Location Temp. Windchill Dew Point Humidity Wind Precip. Elev Updated Type
                   

Watches & Warnings

There are currently no watches in effect.